Time;durP1;ratioP1;P1;durP2;ratioP2;P2;SDS_P1;SDS_P2;PMS_P1;PMS_P2;Temp;Humidity;BMP_temperature;BMP_pressure;BME280_temperature;BME280_humidity;BME280_pressure;Samples;Min_cycle;Max_cycle;Signal;HPM_P1;HPM_P2
2022/11/25 00:11:17;;;;;;;26.37;15.48;;;;;;;5.34;78.72;100325.03;1783420;76;22322;-56
2022/11/25 00:18:16;;;;;;;24.20;13.70;;;;;;;5.33;78.91;100314.29;1813321;78;21272;-56
2022/11/25 00:25:24;;;;;;;24.57;15.13;;;;;;;5.38;78.93;100307.93;1764828;79;21362;-56
2022/11/25 00:29:13;;;;;;;23.40;14.53;;;;;;;5.38;78.92;100310.65;1770013;78;21347;-56
2022/11/25 00:32:54;;;;;;;22.77;14.50;;;;;;;5.38;79.00;100303.38;1762398;80;21217;-55
2022/11/25 00:36:55;;;;;;;27.02;15.25;;;;;;;5.40;78.97;100292.38;1734744;82;21173;-56
2022/11/25 00:40:26;;;;;;;31.85;17.82;;;;;;;5.36;78.87;100281.46;1760252;80;21344;-56
2022/11/25 01:02:50;;;;;;;27.10;16.07;;;;;;;5.12;78.74;100279.17;1827154;77;22270;-55
2022/11/25 01:07:06;;;;;;;26.20;13.53;;;;;;;5.04;78.75;100280.42;1787208;79;21827;-59
2022/11/25 01:28:52;;;;;;;21.85;13.45;;;;;;;4.95;78.84;100322.47;1753000;78;21211;-59
2022/11/25 01:33:00;;;;;;;22.93;12.82;;;;;;;4.92;78.88;100321.36;1754512;79;21269;-55
2022/11/25 01:39:43;;;;;;;23.52;13.13;;;;;;;4.88;78.92;100316.74;1685937;82;21295;-59
2022/11/25 01:47:30;;;;;;;24.87;13.60;;;;;;;4.86;78.84;100317.86;1717369;80;21206;-58
2022/11/25 01:59:01;;;;;;;21.55;12.90;;;;;;;4.81;78.84;100309.29;1704001;80;21341;-55
2022/11/25 02:06:47;;;;;;;19.50;11.97;;;;;;;4.80;78.81;100319.80;1749033;79;21223;-55
2022/11/25 02:33:21;;;;;;;21.45;12.05;;;;;;;4.75;78.96;100321.58;1871045;74;22242;-60
2022/11/25 02:40:21;;;;;;;21.17;12.30;;;;;;;4.70;78.99;100328.40;1745282;76;21227;-59
2022/11/25 02:58:10;;;;;;;18.15;10.63;;;;;;;4.75;79.14;100346.47;1800363;78;22177;-60
2022/11/25 03:01:44;;;;;;;20.95;10.68;;;;;;;4.73;79.07;100348.45;1861429;76;22684;-56
2022/11/25 03:08:47;;;;;;;22.10;12.15;;;;;;;4.66;79.06;100331.05;1781226;77;21327;31
2022/11/25 03:12:54;;;;;;;22.70;12.82;;;;;;;4.63;79.03;100324.90;1705415;82;21628;-55
2022/11/25 03:16:29;;;;;;;23.90;12.73;;;;;;;4.63;79.04;100323.20;1691086;82;21316;-55
2022/11/25 03:20:24;;;;;;;22.02;12.00;;;;;;;4.56;78.88;100333.73;1639261;83;21244;-58
2022/11/25 03:28:20;;;;;;;25.05;13.00;;;;;;;4.46;78.85;100347.27;1660929;82;21173;-59
2022/11/25 03:31:32;;;;;;;20.32;11.57;;;;;;;4.43;78.91;100348.89;1709550;83;21159;-56
2022/11/25 03:35:44;;;;;;;25.30;16.42;;;;;;;4.52;79.06;100343.13;1778063;75;28279;-55
2022/11/25 03:53:41;;;;;;;25.70;12.18;;;;;;;4.67;79.14;100366.64;1837551;77;22363;-60
2022/11/25 04:00:06;;;;;;;31.93;14.68;;;;;;;4.58;79.00;100361.05;1709421;77;21209;-57
2022/11/25 04:04:13;;;;;;;30.52;13.40;;;;;;;4.58;79.01;100351.56;1863103;76;22786;-57
2022/11/25 04:15:40;;;;;;;29.32;13.25;;;;;;;4.53;79.09;100365.19;1757782;79;21189;-59
2022/11/25 04:19:35;;;;;;;22.93;12.53;;;;;;;4.48;79.09;100368.31;1751017;80;21222;-55
2022/11/25 04:26:40;;;;;;;30.30;14.65;;;;;;;4.44;79.05;100358.73;1754282;82;21189;-56
2022/11/25 04:30:33;;;;;;;27.85;14.45;;;;;;;4.43;79.05;100358.87;1726446;81;21245;-55
2022/11/25 04:34:27;;;;;;;27.87;13.22;;;;;;;4.41;79.07;100356.78;1742449;79;21366;-58
2022/11/25 04:38:02;;;;;;;36.20;15.13;;;;;;;4.42;79.16;100360.71;1826645;77;21989;-58
2022/11/25 04:41:22;;;;;;;27.07;14.40;;;;;;;4.40;79.09;100365.44;1813390;78;21198;-60
2022/11/25 04:45:37;;;;;;;22.75;12.58;;;;;;;4.41;79.12;100359.49;1774166;75;22301;-58
2022/11/25 04:52:55;;;;;;;26.23;13.75;;;;;;;4.33;79.08;100354.77;1752036;77;21265;-57
2022/11/25 05:11:23;;;;;;;21.55;11.05;;;;;;;4.37;79.46;100359.42;1632594;85;21253;-56
2022/11/25 05:15:42;;;;;;;21.42;11.18;;;;;;;4.43;79.53;100376.48;1724348;78;21239;-58
2022/11/25 05:22:59;;;;;;;23.60;12.45;;;;;;;4.54;79.52;100389.44;1707176;81;21215;-57
2022/11/25 05:37:17;;;;;;;20.72;12.53;;;;;;;4.61;79.45;100400.08;1802863;77;22444;-58
2022/11/25 05:44:26;;;;;;;22.93;12.95;;;;;;;4.61;79.47;100405.50;1711738;80;21270;-58
2022/11/25 06:27:34;;;;;;;;;;;;;;;4.85;79.36;100440.42;1773546;77;21662;-58
2022/11/25 06:31:04;;;;;;;26.17;13.03;;;;;;;4.87;79.35;100436.22;1737951;81;20221;-58
2022/11/25 06:34:48;;;;;;;22.85;13.25;;;;;;;4.88;79.34;100444.70;1746907;77;21582;-58
2022/11/25 06:41:41;;;;;;;21.73;12.68;;;;;;;4.89;79.30;100454.54;1711985;80;21567;-58
2022/11/25 06:52:34;;;;;;;28.52;14.45;;;;;;;4.96;79.22;100446.22;1669699;82;21835;-56
2022/11/25 06:56:29;;;;;;;24.82;13.53;;;;;;;4.98;79.25;100441.00;1657274;83;21271;-57
2022/11/25 07:10:54;;;;;;;28.77;18.03;;;;;;;5.12;79.18;100469.09;1782959;79;38502;-58
2022/11/25 07:14:17;;;;;;;26.65;15.72;;;;;;;5.15;79.08;100463.91;1734595;80;22045;-56
2022/11/25 07:18:04;;;;;;;25.02;14.98;;;;;;;5.21;79.00;100466.05;1694335;82;21200;-59
2022/11/25 07:22:10;;;;;;;25.02;14.13;;;;;;;5.24;79.08;100459.85;1698003;83;21254;-56
2022/11/25 07:26:06;;;;;;;25.02;14.87;;;;;;;5.27;79.04;100461.42;1671770;83;21221;-55
2022/11/25 07:29:47;;;;;;;24.37;14.03;;;;;;;5.25;78.97;100461.56;1679997;84;21295;-57
2022/11/25 07:44:51;;;;;;;29.02;14.30;;;;;;;5.25;79.07;100454.77;1686551;82;21223;-60
2022/11/25 07:48:39;;;;;;;32.90;15.43;;;;;;;5.29;79.12;100460.78;1656936;85;21793;-59
2022/11/25 07:51:58;;;;;;;23.42;13.13;;;;;;;5.31;79.05;100447.94;1635575;86;21266;-61
2022/11/25 07:55:22;;;;;;;26.60;15.03;;;;;;;5.25;78.99;100458.01;1613892;87;21314;-58
2022/11/25 07:59:03;;;;;;;22.85;14.05;;;;;;;5.27;78.84;100451.92;1857631;74;22261;-58
2022/11/25 08:13:03;;;;;;;18.32;11.40;;;;;;;5.08;79.15;100462.73;1769371;80;22826;-60
2022/11/25 08:16:16;;;;;;;20.12;12.33;;;;;;;5.11;79.25;100469.23;1705866;82;21630;-59
2022/11/25 08:19:39;;;;;;;24.20;12.25;;;;;;;5.20;79.33;100463.83;1673954;80;21224;-58
2022/11/25 08:23:28;;;;;;;22.48;13.15;;;;;;;5.31;79.39;100471.84;1685680;81;21283;-61
2022/11/25 08:37:55;;;;;;;27.77;16.03;;;;;;;5.44;79.13;100481.11;1767426;77;21736;-58
2022/11/25 08:41:52;;;;;;;22.77;13.48;;;;;;;5.44;79.06;100483.83;1667692;82;21283;-58
2022/11/25 08:55:42;;;;;;;19.55;12.78;;;;;;;5.45;79.27;100480.09;1810743;79;22746;-56
2022/11/25 08:59:03;;;;;;;26.97;14.05;;;;;;;5.41;79.26;100488.14;1786567;78;21277;-57
2022/11/25 09:02:26;;;;;;;25.40;14.33;;;;;;;5.39;79.16;100445.38;1715054;82;21887;-57
2022/11/25 09:05:54;;;;;;;27.35;12.95;;;;;;;5.29;78.98;100468.44;1756535;81;21325;-58
2022/11/25 09:09:28;;;;;;;20.75;12.70;;;;;;;5.33;79.07;100477.13;1725264;82;21271;-58
2022/11/25 09:12:46;;;;;;;18.82;12.45;;;;;;;5.35;79.04;100456.14;1733555;81;21332;-57
2022/11/25 09:16:18;;;;;;;20.48;12.53;;;;;;;5.34;79.01;100439.52;1712108;82;21259;-55
2022/11/25 09:19:32;;;;;;;21.20;13.60;;;;;;;5.32;79.00;100434.23;1739787;81;21248;-56
2022/11/25 09:22:45;;;;;;;23.15;14.73;;;;;;;5.46;79.22;100446.52;1750359;80;21558;-56
2022/11/25 09:26:17;;;;;;;19.00;12.05;;;;;;;5.60;79.26;100449.66;1707064;80;21206;-56
2022/11/25 09:29:37;;;;;;;16.65;10.93;;;;;;;5.77;79.27;100448.11;1713778;82;21693;-57
2022/11/25 09:33:00;;;;;;;20.40;11.75;;;;;;;5.86;79.05;100439.11;1844971;76;22698;-57
2022/11/25 09:36:13;;;;;;;21.68;12.55;;;;;;;5.78;78.88;100452.52;1735788;79;21225;-56
2022/11/25 09:39:33;;;;;;;21.60;12.70;;;;;;;5.71;78.83;100454.95;1708138;82;21256;-57
2022/11/25 09:47:13;;;;;;;21.65;14.18;;;;;;;5.72;78.79;100463.97;1728265;80;21201;-57
2022/11/25 09:51:02;;;;;;;20.57;14.33;;;;;;;5.87;79.07;100464.77;1828682;76;27957;-56
2022/11/25 09:54:51;;;;;;;17.85;11.93;;;;;;;5.92;78.91;100473.84;1792428;78;21207;-59
2022/11/25 09:58:42;;;;;;;23.80;15.53;;;;;;;5.93;78.82;100468.79;1784323;79;21835;-58
2022/11/25 10:02:22;;;;;;;18.90;11.90;;;;;;;5.93;78.81;100465.55;1771964;79;21236;-56
2022/11/25 10:06:17;;;;;;;20.15;13.03;;;;;;;6.01;78.93;100478.41;1871683;76;22269;-56
2022/11/25 10:09:51;;;;;;;21.30;13.68;;;;;;;5.97;79.04;100478.35;1834794;78;21545;-57
2022/11/25 10:13:37;;;;;;;21.70;12.90;;;;;;;6.01;79.13;100481.13;1841117;77;21200;-60
2022/11/25 10:21:03;;;;;;;20.62;14.28;;;;;;;6.03;79.18;100488.15;1843957;78;21549;-57
2022/11/25 10:25:03;;;;;;;22.42;13.80;;;;;;;6.07;79.23;100484.13;1843694;76;21313;-59
2022/11/25 10:28:42;;;;;;;20.08;13.13;;;;;;;6.13;79.25;100488.14;1829495;76;21531;-58
2022/11/25 10:32:24;;;;;;;24.15;13.95;;;;;;;6.19;79.17;100485.33;1837235;77;21828;-60
2022/11/25 10:36:12;;;;;;;26.52;13.08;;;;;;;6.20;79.16;100495.21;1825376;78;21327;-61
2022/11/25 10:39:37;;;;;;;20.80;13.65;;;;;;;6.36;79.31;100487.31;1832174;76;22278;-59
2022/11/25 10:42:57;;;;;;;22.37;14.03;;;;;;;6.37;79.31;100487.66;1764486;79;21351;-57
2022/11/25 10:46:52;;;;;;;23.00;14.20;;;;;;;6.41;79.22;100484.50;1763149;80;21399;-60
2022/11/25 10:51:03;;;;;;;23.70;15.13;;;;;;;6.47;79.15;100494.78;1707360;79;22136;-60
2022/11/25 10:54:31;;;;;;;21.70;15.15;;;;;;;6.51;79.16;100497.58;1719029;80;21205;-58
2022/11/25 10:58:28;;;;;;;22.52;15.23;;;;;;;6.56;79.16;100487.12;1731487;81;21220;-59
2022/11/25 11:02:02;;;;;;;20.82;13.88;;;;;;;6.62;79.20;100497.89;1747180;82;21246;-60
2022/11/25 11:05:57;;;;;;;23.22;14.38;;;;;;;6.67;79.26;100495.59;1763773;80;21211;-61
2022/11/25 11:09:51;;;;;;;20.27;13.70;;;;;;;6.78;79.24;100489.96;1860053;75;22266;-62
2022/11/25 11:13:14;;;;;;;21.35;14.50;;;;;;;6.74;79.23;100496.72;1799697;75;21125;-62
2022/11/25 11:16:50;;;;;;;23.60;14.28;;;;;;;6.75;79.14;100497.94;1683876;84;22198;-62
2022/11/25 11:20:30;;;;;;;22.15;14.28;;;;;;;6.67;79.01;100495.09;1663190;84;21253;-65
2022/11/25 11:24:03;;;;;;;21.33;13.35;;;;;;;6.63;79.00;100492.30;1624631;86;21533;-59
2022/11/25 11:27:46;;;;;;;21.10;13.53;;;;;;;6.62;79.05;100496.04;1687755;83;21180;-65
2022/11/25 11:31:35;;;;;;;20.25;14.40;;;;;;;6.63;79.10;100496.38;1648551;86;21223;-60
2022/11/25 11:35:33;;;;;;;22.02;14.43;;;;;;;6.61;79.08;100501.10;1731134;81;21635;-65
2022/11/25 11:39:34;;;;;;;19.98;13.03;;;;;;;6.60;79.08;100503.48;1747106;78;21687;-67
2022/11/25 11:43:25;;;;;;;22.07;13.08;;;;;;;6.58;79.08;100499.20;1789120;78;21317;-60
2022/11/25 11:47:15;;;;;;;25.55;14.05;;;;;;;6.56;79.13;100504.80;1790890;78;21285;-59
2022/11/25 11:51:00;;;;;;;20.77;14.07;;;;;;;6.56;79.18;100504.80;1788912;79;21415;-59
2022/11/25 11:54:31;;;;;;;20.60;14.10;;;;;;;6.56;79.14;100512.09;1764261;80;21685;-58
2022/11/25 11:58:03;;;;;;;22.30;14.45;;;;;;;6.55;79.18;100508.50;1770921;78;21693;-64
2022/11/25 12:02:06;;;;;;;21.30;13.58;;;;;;;6.55;79.20;100507.14;1764557;78;21167;-67
2022/11/25 12:05:44;;;;;;;21.25;13.68;;;;;;;6.53;79.15;100513.25;1755698;79;21695;-59
2022/11/25 12:09:26;;;;;;;23.80;16.73;;;;;;;6.53;79.19;100515.97;1794597;75;28737;-66
2022/11/25 12:13:06;;;;;;;20.32;13.32;;;;;;;6.54;79.13;100520.88;1770309;77;21258;-66
2022/11/25 12:21:20;;;;;;;18.57;11.90;;;;;;;6.54;79.07;100514.09;1764380;78;21188;-65
2022/11/25 12:25:18;;;;;;;28.30;15.85;;;;;;;6.51;79.11;100507.09;1821355;77;21200;-66
2022/11/25 12:28:54;;;;;;;20.88;13.48;;;;;;;6.50;79.15;100508.60;1764954;79;21729;-60
2022/11/25 12:37:35;;;;;;;21.45;15.10;;;;;;;6.46;79.21;100506.67;1817387;79;21188;-59
2022/11/25 12:41:45;;;;;;;19.60;12.98;;;;;;;6.42;79.31;100516.14;1815916;77;21117;-61
2022/11/25 12:45:28;;;;;;;22.98;14.20;;;;;;;6.43;79.24;100512.41;1766735;80;21380;-65
2022/11/25 12:48:35;;;;;;;21.15;13.65;;;;;;;6.41;79.30;100515.77;1738356;81;21539;-64
2022/11/25 13:03:30;;;;;;;19.02;12.63;;;;;;;6.37;79.42;100507.56;1865525;76;22329;-59
2022/11/25 13:07:34;;;;;;;22.40;14.30;;;;;;;6.27;79.33;100509.42;1678587;81;21259;-59
2022/11/25 13:10:56;;;;;;;19.82;12.28;;;;;;;6.22;79.38;100517.16;1650843;82;21611;-65
2022/11/25 13:15:01;;;;;;;17.95;11.83;;;;;;;6.20;79.41;100525.94;1652190;82;21847;-65
2022/11/25 13:18:51;;;;;;;19.10;11.03;;;;;;;6.20;79.49;100530.02;1647483;85;21559;-60
2022/11/25 13:22:15;;;;;;;21.33;12.10;;;;;;;6.20;79.54;100536.81;1624397;85;21785;-59
2022/11/25 13:25:55;;;;;;;18.35;12.45;;;;;;;6.23;79.63;100540.63;1630857;82;21224;-64
2022/11/25 13:29:26;;;;;;;24.70;13.30;;;;;;;6.23;79.61;100545.20;1638969;82;21231;-66
2022/11/25 13:32:46;;;;;;;22.10;12.78;;;;;;;6.21;79.51;100539.91;1602784;83;21304;-60
2022/11/25 13:36:31;;;;;;;21.77;11.73;;;;;;;6.19;79.51;100541.03;1603902;83;21331;-65
2022/11/25 13:40:05;;;;;;;22.60;11.78;;;;;;;6.18;79.53;100540.20;1558836;85;21837;-65
2022/11/25 13:43:41;;;;;;;24.82;12.58;;;;;;;6.18;79.55;100536.13;1612115;83;21339;-59
2022/11/25 13:47:05;;;;;;;21.15;12.50;;;;;;;6.17;79.57;100538.98;1634428;87;21280;-60
2022/11/25 13:50:32;;;;;;;22.95;12.30;;;;;;;6.16;79.58;100535.41;1645306;85;21360;-64
2022/11/25 13:54:15;;;;;;;20.75;11.53;;;;;;;6.16;79.60;100536.77;1640186;81;21225;-65
2022/11/25 14:02:03;;;;;;;20.23;11.00;;;;;;;6.14;79.59;100551.52;1644172;81;21244;-64
2022/11/25 14:05:56;;;;;;;22.60;14.68;;;;;;;6.10;79.58;100552.30;1632105;82;21279;-62
2022/11/25 14:09:53;;;;;;;23.22;11.83;;;;;;;6.06;79.60;100546.28;1645796;82;22070;-60
2022/11/25 14:14:29;;;;;;;23.47;11.83;;;;;;;6.05;79.66;100548.65;1654409;82;21436;-60
2022/11/25 14:18:22;;;;;;;21.33;12.00;;;;;;;6.07;79.72;100551.22;1609245;83;21762;-58
2022/11/25 14:22:50;;;;;;;28.67;14.07;;;;;;;6.08;79.79;100555.16;1653426;82;21252;-60
2022/11/25 14:26:41;;;;;;;24.60;13.10;;;;;;;6.06;79.64;100546.77;1609514;85;21524;-62
2022/11/25 14:30:20;;;;;;;24.23;14.38;;;;;;;6.01;79.66;100543.62;1611689;82;21262;-60
2022/11/25 14:34:06;;;;;;;25.60;15.60;;;;;;;6.00;79.74;100555.01;1621272;83;21302;-56
2022/11/25 14:37:48;;;;;;;26.05;15.72;;;;;;;5.96;79.62;100566.31;1607298;84;21230;-61
2022/11/25 14:45:39;;;;;;;35.95;18.05;;;;;;;5.85;79.53;100569.16;1631519;85;21288;-61
2022/11/25 14:49:35;;;;;;;39.75;16.77;;;;;;;5.83;79.62;100574.73;1853018;75;22757;-60
2022/11/25 15:00:46;;;;;;;25.85;13.08;;;;;;;5.77;79.71;100573.88;1676721;82;22015;-57
2022/11/25 15:04:35;;;;;;;24.95;13.00;;;;;;;5.76;79.78;100577.61;1704792;79;21254;-60
2022/11/25 15:08:30;;;;;;;31.37;15.32;;;;;;;5.78;79.90;100583.77;1723599;74;21294;-60
2022/11/25 15:11:53;;;;;;;33.30;17.15;;;;;;;5.83;79.97;100586.09;1781924;77;21628;-60
2022/11/25 15:15:24;;;;;;;22.58;12.63;;;;;;;5.85;79.91;100590.89;1758493;77;21183;-61
2022/11/25 15:18:50;;;;;;;23.02;11.80;;;;;;;5.86;79.94;100598.90;1765581;77;21226;-57
2022/11/25 15:22:12;;;;;;;23.40;14.43;;;;;;;5.99;80.00;100601.34;1866082;75;22661;-58
2022/11/25 15:26:12;;;;;;;20.05;12.65;;;;;;;5.95;79.94;100598.05;1790632;76;21690;-57
2022/11/25 15:29:25;;;;;;;22.73;12.47;;;;;;;5.87;79.76;100595.66;1792334;77;21246;-62
2022/11/25 15:32:51;;;;;;;18.85;12.07;;;;;;;5.86;79.92;100597.55;1794593;76;21294;-58
2022/11/25 15:36:29;;;;;;;19.65;12.03;;;;;;;5.90;79.93;100592.66;1790563;78;22166;-59
2022/11/25 15:40:43;;;;;;;21.80;13.60;;;;;;;5.89;79.89;100592.31;1817090;76;21197;-57
2022/11/25 15:52:15;;;;;;;16.60;10.90;;;;;;;5.83;79.89;100603.75;1798545;78;21266;-62
2022/11/25 15:55:57;;;;;;;20.72;10.93;;;;;;;5.86;79.96;100598.03;1796956;77;21655;-63
2022/11/25 16:00:10;;;;;;;17.40;11.38;;;;;;;5.88;79.96;100593.33;1806269;77;21240;-57
2022/11/25 16:03:22;;;;;;;15.15;10.50;;;;;;;5.90;80.00;100599.45;1813714;77;21462;-57
2022/11/25 16:07:07;;;;;;;19.85;11.90;;;;;;;5.96;79.92;100602.98;1883190;75;22732;-58
2022/11/25 16:10:47;;;;;;;19.07;11.45;;;;;;;5.89;79.92;100600.46;1809913;78;21152;-61
2022/11/25 16:25:55;;;;;;;16.23;9.83;;;;;;;5.83;79.95;100608.69;1826997;77;21657;-60
2022/11/25 16:30:00;;;;;;;15.65;9.63;;;;;;;5.84;79.99;100609.04;1820660;76;21349;-57
2022/11/25 16:33:17;;;;;;;;;;;;;;;5.86;79.98;100607.53;1830616;77;21186;-58
2022/11/25 16:41:45;;;;;;;14.47;10.03;;;;;;;5.88;80.04;100613.70;1628919;84;21242;-60
2022/11/25 16:49:06;;;;;;;16.80;10.90;;;;;;;5.84;79.89;100618.55;1644613;85;21300;-57
2022/11/25 16:52:48;;;;;;;19.42;11.75;;;;;;;5.82;79.88;100625.09;1664756;85;21201;-58
2022/11/25 16:56:45;;;;;;;17.65;11.15;;;;;;;5.78;79.84;100616.85;1678997;81;22180;-61
2022/11/25 17:10:34;;;;;;;25.48;14.38;;;;;;;5.69;79.81;100628.56;1786043;80;22320;-59
2022/11/25 17:14:20;;;;;;;25.72;14.13;;;;;;;5.64;79.87;100637.61;1726948;82;21737;-57
2022/11/25 17:18:01;;;;;;;39.58;18.55;;;;;;;5.62;79.86;100635.53;1733312;81;21245;-59
2022/11/25 17:25:36;;;;;;;26.60;14.87;;;;;;;5.63;79.95;100634.03;1680108;84;21228;-60
2022/11/25 17:29:07;;;;;;;23.25;12.90;;;;;;;5.64;79.96;100634.91;1703971;83;21463;-60
2022/11/25 17:32:36;;;;;;;40.55;21.45;;;;;;;5.66;79.95;100626.13;1697260;84;21205;-57
2022/11/25 17:36:25;;;;;;;25.80;14.05;;;;;;;5.64;79.89;100618.61;1661501;85;21225;-60
2022/11/25 17:43:52;;;;;;;31.33;18.70;;;;;;;5.59;79.78;100609.52;1698470;83;21213;-61
2022/11/25 18:20:31;;;;;;;19.42;12.80;;;;;;;5.61;80.13;100636.54;1864105;75;22711;-55
2022/11/25 18:24:27;;;;;;;18.15;11.65;;;;;;;5.59;80.15;100631.73;1857623;76;22304;-56
2022/11/25 18:28:51;;;;;;;19.32;11.70;;;;;;;5.52;80.14;100634.63;1803629;78;21860;-55
2022/11/25 18:32:25;;;;;;;21.05;14.80;;;;;;;5.59;80.18;100643.95;1841697;76;27972;-57
2022/11/25 18:36:09;;;;;;;20.03;12.87;;;;;;;5.60;80.08;100642.95;1723304;82;21145;-60
2022/11/25 18:39:40;;;;;;;27.62;14.95;;;;;;;5.60;80.00;100639.74;1733821;82;21224;-60
2022/11/25 18:43:27;;;;;;;18.12;11.68;;;;;;;5.59;80.00;100642.11;1722848;82;21192;-61
2022/11/25 18:47:18;;;;;;;17.05;11.18;;;;;;;5.58;79.97;100638.17;1742243;81;21178;-60
2022/11/25 18:51:11;;;;;;;17.67;11.00;;;;;;;5.58;80.01;100649.03;1678705;82;21217;-61
2022/11/25 19:02:26;;;;;;;16.75;11.28;;;;;;;5.56;80.14;100665.95;1707575;83;21215;-61
2022/11/25 19:06:31;;;;;;;17.92;11.48;;;;;;;5.60;80.10;100670.09;1872026;74;22660;-60
2022/11/25 19:15:09;;;;;;;;;;;;;;;5.55;80.24;100672.39;1802764;77;21247;-60
2022/11/25 19:25:31;;;;;;;21.15;13.48;;;;;;;5.55;80.28;100666.96;1662432;82;21278;-59
2022/11/25 19:29:10;;;;;;;18.45;12.20;;;;;;;5.56;80.30;100670.03;1678777;80;21537;-60
2022/11/25 19:32:16;;;;;;;21.05;13.32;;;;;;;5.55;80.21;100668.32;1663644;82;21339;-59
2022/11/25 19:39:09;;;;;;;18.30;11.68;;;;;;;5.50;80.20;100667.87;1689147;81;21804;-59
2022/11/25 19:42:13;;;;;;;30.77;18.95;;;;;;;5.50;80.22;100664.63;1713854;80;21709;-56
2022/11/25 19:45:31;;;;;;;27.55;17.48;;;;;;;5.50;80.22;100662.44;1676935;82;21786;-59
2022/11/25 19:48:28;;;;;;;21.17;13.75;;;;;;;5.52;80.28;100664.49;1687914;80;21274;-56
2022/11/25 19:58:38;;;;;;;20.77;13.28;;;;;;;5.58;80.40;100673.47;1683856;80;21207;-56
2022/11/25 20:07:56;;;;;;;20.37;13.25;;;;;;;5.60;80.41;100672.33;1657661;84;21303;-60
2022/11/25 20:11:05;;;;;;;19.50;11.83;;;;;;;5.60;80.44;100671.45;1680674;83;21336;-60
2022/11/25 20:14:52;;;;;;;;;;;;;;;5.62;80.45;100669.47;1653170;83;21206;-56
2022/11/25 20:28:55;;;;;;;17.90;11.22;;;;;;;5.72;80.59;100688.87;1749712;78;22265;-56
2022/11/25 20:36:47;;;;;;;19.90;12.65;;;;;;;5.66;80.55;100693.50;1716761;80;22054;-59
2022/11/25 20:40:18;;;;;;;20.55;12.30;;;;;;;5.71;80.54;100697.16;1824712;76;22361;-56
2022/11/25 20:44:18;;;;;;;19.17;12.43;;;;;;;5.65;80.56;100696.35;1769117;80;21390;-57
2022/11/25 20:51:37;;;;;;;20.65;12.63;;;;;;;5.74;80.65;100702.34;1858772;76;22179;-58
2022/11/25 20:55:41;;;;;;;21.75;13.25;;;;;;;5.70;80.65;100703.59;1736598;82;21459;-60
2022/11/25 20:59:22;;;;;;;18.48;12.33;;;;;;;5.71;80.67;100709.38;1804309;78;21709;-56
2022/11/25 22:19:19;;;;;;;18.35;12.35;;;;;;;5.78;81.01;100718.71;1859249;76;22261;-56
2022/11/25 22:26:38;;;;;;;22.45;13.80;;;;;;;5.74;80.99;100718.64;1801552;79;21200;-59
2022/11/25 22:30:16;;;;;;;21.55;13.75;;;;;;;5.82;80.94;100713.38;1851898;77;23044;-59
2022/11/25 22:34:12;;;;;;;19.90;12.60;;;;;;;5.75;80.83;100713.06;1796860;78;21378;-56
2022/11/25 22:52:32;;;;;;;16.52;10.98;;;;;;;5.85;81.00;100737.06;1797426;79;22297;-60
2022/11/25 22:56:15;;;;;;;18.27;10.63;;;;;;;5.81;81.03;100741.03;1719070;82;21184;-57
2022/11/25 22:59:22;;;;;;;17.27;11.45;;;;;;;5.82;80.99;100742.77;1702675;79;21183;-59
2022/11/25 23:10:47;;;;;;;17.77;11.00;;;;;;;5.87;80.95;100746.43;1681358;82;21225;-59
2022/11/25 23:18:52;;;;;;;16.65;10.58;;;;;;;5.89;80.93;100753.95;1835015;75;23164;-61
2022/11/25 23:22:40;;;;;;;15.23;10.43;;;;;;;5.84;80.94;100750.78;1758408;78;21252;-57
2022/11/25 23:29:36;;;;;;;13.22;9.35;;;;;;;5.85;80.98;100755.24;1755727;77;21204;-56
2022/11/25 23:33:18;;;;;;;12.80;9.08;;;;;;;5.93;81.08;100758.97;1844006;76;22790;-56
2022/11/25 23:40:51;;;;;;;12.23;8.80;;;;;;;5.88;81.05;100761.23;1651134;84;20232;-57
2022/11/25 23:44:48;;;;;;;11.25;8.25;;;;;;;5.93;81.00;100775.27;1805061;76;22813;-56
2022/11/25 23:48:54;;;;;;;12.90;8.65;;;;;;;5.87;81.06;100772.23;1766441;79;21189;-55
2022/11/25 23:55:49;;;;;;;11.48;7.92;;;;;;;5.82;81.00;100769.94;1747026;79;21310;-55
